sensor_id;sensor_type;location;lat;lon;timestamp;P1;durP1;ratioP1;P2;durP2;ratioP2
15049;SDS011;7622;42.724;23.250;2024-02-26T00:01:02;24.27;;;16.30;;
15049;SDS011;7622;42.724;23.250;2024-02-26T00:03:33;21.73;;;15.60;;
15049;SDS011;7622;42.724;23.250;2024-02-26T00:06:01;23.23;;;15.67;;
15049;SDS011;7622;42.724;23.250;2024-02-26T00:08:27;25.60;;;16.03;;
15049;SDS011;7622;42.724;23.250;2024-02-26T00:10:54;24.73;;;17.13;;
15049;SDS011;7622;42.724;23.250;2024-02-26T00:13:21;27.03;;;17.00;;
15049;SDS011;7622;42.724;23.250;2024-02-26T00:15:47;23.83;;;17.33;;
15049;SDS011;7622;42.724;23.250;2024-02-26T00:18:14;27.67;;;17.07;;
15049;SDS011;7622;42.724;23.250;2024-02-26T00:20:42;25.90;;;17.27;;
15049;SDS011;7622;42.724;23.250;2024-02-26T00:23:09;27.83;;;17.83;;
15049;SDS011;7622;42.724;23.250;2024-02-26T00:25:35;26.13;;;18.33;;
15049;SDS011;7622;42.724;23.250;2024-02-26T00:28:03;22.40;;;17.20;;
15049;SDS011;7622;42.724;23.250;2024-02-26T00:30:30;22.63;;;17.53;;
15049;SDS011;7622;42.724;23.250;2024-02-26T00:32:56;24.93;;;16.93;;
15049;SDS011;7622;42.724;23.250;2024-02-26T00:35:23;26.20;;;17.17;;
15049;SDS011;7622;42.724;23.250;2024-02-26T00:37:51;28.20;;;17.40;;
15049;SDS011;7622;42.724;23.250;2024-02-26T00:40:18;28.00;;;16.97;;
15049;SDS011;7622;42.724;23.250;2024-02-26T00:42:45;29.30;;;17.70;;
15049;SDS011;7622;42.724;23.250;2024-02-26T00:45:14;28.30;;;18.40;;
15049;SDS011;7622;42.724;23.250;2024-02-26T00:47:42;26.70;;;18.00;;
15049;SDS011;7622;42.724;23.250;2024-02-26T00:50:10;29.23;;;17.43;;
15049;SDS011;7622;42.724;23.250;2024-02-26T00:52:36;26.33;;;17.10;;
15049;SDS011;7622;42.724;23.250;2024-02-26T00:55:05;25.90;;;17.03;;
15049;SDS011;7622;42.724;23.250;2024-02-26T00:57:33;25.77;;;17.83;;
15049;SDS011;7622;42.724;23.250;2024-02-26T00:59:59;27.00;;;17.23;;
15049;SDS011;7622;42.724;23.250;2024-02-26T01:02:26;29.67;;;17.20;;
15049;SDS011;7622;42.724;23.250;2024-02-26T01:04:53;27.30;;;17.63;;
15049;SDS011;7622;42.724;23.250;2024-02-26T01:07:20;26.13;;;17.43;;
15049;SDS011;7622;42.724;23.250;2024-02-26T01:09:47;22.30;;;16.60;;
15049;SDS011;7622;42.724;23.250;2024-02-26T01:12:15;26.20;;;16.83;;
15049;SDS011;7622;42.724;23.250;2024-02-26T01:14:42;31.30;;;16.63;;
15049;SDS011;7622;42.724;23.250;2024-02-26T01:17:08;24.43;;;16.90;;
15049;SDS011;7622;42.724;23.250;2024-02-26T01:19:35;24.07;;;16.53;;
15049;SDS011;7622;42.724;23.250;2024-02-26T01:22:02;21.83;;;16.63;;
15049;SDS011;7622;42.724;23.250;2024-02-26T01:24:29;24.53;;;16.57;;
15049;SDS011;7622;42.724;23.250;2024-02-26T01:26:55;26.53;;;17.63;;
15049;SDS011;7622;42.724;23.250;2024-02-26T01:29:23;24.13;;;17.10;;
15049;SDS011;7622;42.724;23.250;2024-02-26T01:31:50;23.30;;;17.33;;
15049;SDS011;7622;42.724;23.250;2024-02-26T01:34:17;23.27;;;16.97;;
15049;SDS011;7622;42.724;23.250;2024-02-26T01:36:44;25.60;;;18.20;;
15049;SDS011;7622;42.724;23.250;2024-02-26T01:39:10;30.40;;;18.23;;
15049;SDS011;7622;42.724;23.250;2024-02-26T01:41:37;26.17;;;17.37;;
15049;SDS011;7622;42.724;23.250;2024-02-26T01:44:04;27.13;;;16.70;;
15049;SDS011;7622;42.724;23.250;2024-02-26T01:46:32;24.37;;;17.20;;
15049;SDS011;7622;42.724;23.250;2024-02-26T01:49:02;24.87;;;17.93;;
15049;SDS011;7622;42.724;23.250;2024-02-26T01:51:29;27.53;;;17.97;;
15049;SDS011;7622;42.724;23.250;2024-02-26T01:53:56;20.40;;;16.20;;
15049;SDS011;7622;42.724;23.250;2024-02-26T01:56:23;23.63;;;16.73;;
15049;SDS011;7622;42.724;23.250;2024-02-26T01:58:53;25.27;;;17.83;;
15049;SDS011;7622;42.724;23.250;2024-02-26T02:01:20;25.90;;;16.83;;
15049;SDS011;7622;42.724;23.250;2024-02-26T02:03:50;25.07;;;18.23;;
15049;SDS011;7622;42.724;23.250;2024-02-26T02:06:17;28.03;;;17.57;;
15049;SDS011;7622;42.724;23.250;2024-02-26T02:08:45;27.40;;;18.60;;
15049;SDS011;7622;42.724;23.250;2024-02-26T02:11:15;24.13;;;17.63;;
15049;SDS011;7622;42.724;23.250;2024-02-26T02:13:45;23.50;;;17.80;;
15049;SDS011;7622;42.724;23.250;2024-02-26T02:16:12;24.63;;;18.60;;
15049;SDS011;7622;42.724;23.250;2024-02-26T02:18:39;31.87;;;19.33;;
15049;SDS011;7622;42.724;23.250;2024-02-26T02:21:07;27.70;;;18.97;;
15049;SDS011;7622;42.724;23.250;2024-02-26T02:23:34;28.90;;;19.63;;
15049;SDS011;7622;42.724;23.250;2024-02-26T02:26:01;26.20;;;18.87;;
15049;SDS011;7622;42.724;23.250;2024-02-26T02:28:27;27.17;;;19.30;;
15049;SDS011;7622;42.724;23.250;2024-02-26T02:30:54;26.60;;;19.90;;
15049;SDS011;7622;42.724;23.250;2024-02-26T02:33:22;28.87;;;20.00;;
15049;SDS011;7622;42.724;23.250;2024-02-26T02:35:50;23.40;;;18.07;;
15049;SDS011;7622;42.724;23.250;2024-02-26T02:38:37;28.97;;;18.00;;
15049;SDS011;7622;42.724;23.250;2024-02-26T02:41:04;26.87;;;18.40;;
15049;SDS011;7622;42.724;23.250;2024-02-26T02:43:31;28.87;;;18.70;;
15049;SDS011;7622;42.724;23.250;2024-02-26T02:45:58;25.57;;;17.47;;
15049;SDS011;7622;42.724;23.250;2024-02-26T02:48:24;27.80;;;18.37;;
15049;SDS011;7622;42.724;23.250;2024-02-26T02:50:51;25.47;;;17.57;;
15049;SDS011;7622;42.724;23.250;2024-02-26T02:53:18;25.47;;;17.33;;
15049;SDS011;7622;42.724;23.250;2024-02-26T02:55:46;25.53;;;18.30;;
15049;SDS011;7622;42.724;23.250;2024-02-26T02:58:13;23.67;;;16.80;;
15049;SDS011;7622;42.724;23.250;2024-02-26T03:00:40;23.03;;;16.53;;
15049;SDS011;7622;42.724;23.250;2024-02-26T03:03:06;24.40;;;16.63;;
15049;SDS011;7622;42.724;23.250;2024-02-26T03:05:33;23.87;;;15.97;;
15049;SDS011;7622;42.724;23.250;2024-02-26T03:08:03;28.40;;;16.57;;
15049;SDS011;7622;42.724;23.250;2024-02-26T03:10:32;29.33;;;18.33;;
15049;SDS011;7622;42.724;23.250;2024-02-26T03:13:00;26.57;;;16.90;;
15049;SDS011;7622;42.724;23.250;2024-02-26T03:15:26;21.17;;;15.17;;
15049;SDS011;7622;42.724;23.250;2024-02-26T03:17:53;23.00;;;17.10;;
15049;SDS011;7622;42.724;23.250;2024-02-26T03:20:20;22.33;;;16.07;;
15049;SDS011;7622;42.724;23.250;2024-02-26T03:22:46;25.50;;;17.10;;
15049;SDS011;7622;42.724;23.250;2024-02-26T03:25:13;27.80;;;16.50;;
15049;SDS011;7622;42.724;23.250;2024-02-26T03:27:40;25.57;;;16.27;;
15049;SDS011;7622;42.724;23.250;2024-02-26T03:30:07;31.00;;;16.70;;
15049;SDS011;7622;42.724;23.250;2024-02-26T03:32:35;27.13;;;16.80;;
15049;SDS011;7622;42.724;23.250;2024-02-26T03:35:03;21.67;;;15.90;;
15049;SDS011;7622;42.724;23.250;2024-02-26T03:37:31;26.57;;;16.67;;
15049;SDS011;7622;42.724;23.250;2024-02-26T03:39:58;26.23;;;17.10;;
15049;SDS011;7622;42.724;23.250;2024-02-26T03:42:26;23.47;;;16.77;;
15049;SDS011;7622;42.724;23.250;2024-02-26T03:44:52;23.07;;;16.63;;
15049;SDS011;7622;42.724;23.250;2024-02-26T03:47:20;22.50;;;16.97;;
15049;SDS011;7622;42.724;23.250;2024-02-26T03:49:47;18.83;;;15.43;;
15049;SDS011;7622;42.724;23.250;2024-02-26T03:52:14;24.07;;;16.60;;
15049;SDS011;7622;42.724;23.250;2024-02-26T03:54:41;23.47;;;17.00;;
15049;SDS011;7622;42.724;23.250;2024-02-26T03:57:07;21.83;;;16.47;;
15049;SDS011;7622;42.724;23.250;2024-02-26T03:59:34;19.50;;;15.60;;
15049;SDS011;7622;42.724;23.250;2024-02-26T04:02:01;21.50;;;15.73;;
15049;SDS011;7622;42.724;23.250;2024-02-26T04:04:29;23.90;;;15.77;;
15049;SDS011;7622;42.724;23.250;2024-02-26T04:06:56;23.63;;;17.03;;
15049;SDS011;7622;42.724;23.250;2024-02-26T04:09:22;19.90;;;15.23;;
15049;SDS011;7622;42.724;23.250;2024-02-26T04:11:49;23.17;;;16.47;;
15049;SDS011;7622;42.724;23.250;2024-02-26T04:14:16;22.20;;;16.93;;
15049;SDS011;7622;42.724;23.250;2024-02-26T04:16:42;21.90;;;16.20;;
15049;SDS011;7622;42.724;23.250;2024-02-26T04:19:09;24.73;;;16.80;;
15049;SDS011;7622;42.724;23.250;2024-02-26T04:21:40;26.60;;;17.47;;
15049;SDS011;7622;42.724;23.250;2024-02-26T04:24:10;24.67;;;18.03;;
15049;SDS011;7622;42.724;23.250;2024-02-26T04:26:39;25.73;;;18.87;;
15049;SDS011;7622;42.724;23.250;2024-02-26T04:29:05;26.63;;;17.90;;
15049;SDS011;7622;42.724;23.250;2024-02-26T04:31:32;24.60;;;18.03;;
15049;SDS011;7622;42.724;23.250;2024-02-26T04:33:59;25.77;;;18.73;;
15049;SDS011;7622;42.724;23.250;2024-02-26T04:36:25;29.10;;;18.60;;
15049;SDS011;7622;42.724;23.250;2024-02-26T04:38:53;26.00;;;18.03;;
15049;SDS011;7622;42.724;23.250;2024-02-26T04:41:20;30.90;;;19.17;;
15049;SDS011;7622;42.724;23.250;2024-02-26T04:43:47;28.27;;;19.20;;
15049;SDS011;7622;42.724;23.250;2024-02-26T04:46:14;27.33;;;18.70;;
15049;SDS011;7622;42.724;23.250;2024-02-26T04:48:41;30.60;;;18.83;;
15049;SDS011;7622;42.724;23.250;2024-02-26T04:51:08;25.47;;;17.73;;
15049;SDS011;7622;42.724;23.250;2024-02-26T04:53:34;25.70;;;18.10;;
15049;SDS011;7622;42.724;23.250;2024-02-26T04:56:02;25.10;;;18.00;;
15049;SDS011;7622;42.724;23.250;2024-02-26T04:58:30;26.27;;;17.03;;
15049;SDS011;7622;42.724;23.250;2024-02-26T05:00:56;32.70;;;18.40;;
15049;SDS011;7622;42.724;23.250;2024-02-26T05:03:23;30.77;;;18.87;;
15049;SDS011;7622;42.724;23.250;2024-02-26T05:05:50;29.07;;;19.37;;
15049;SDS011;7622;42.724;23.250;2024-02-26T05:08:17;26.73;;;19.23;;
15049;SDS011;7622;42.724;23.250;2024-02-26T05:10:44;26.37;;;18.63;;
15049;SDS011;7622;42.724;23.250;2024-02-26T05:13:13;23.37;;;16.70;;
15049;SDS011;7622;42.724;23.250;2024-02-26T05:15:40;21.73;;;15.37;;
15049;SDS011;7622;42.724;23.250;2024-02-26T05:18:07;22.17;;;14.33;;
15049;SDS011;7622;42.724;23.250;2024-02-26T05:20:34;22.47;;;15.67;;
15049;SDS011;7622;42.724;23.250;2024-02-26T05:23:03;21.97;;;14.90;;
15049;SDS011;7622;42.724;23.250;2024-02-26T05:25:29;20.03;;;14.50;;
15049;SDS011;7622;42.724;23.250;2024-02-26T05:27:56;20.83;;;15.60;;
15049;SDS011;7622;42.724;23.250;2024-02-26T05:30:24;25.07;;;16.73;;
15049;SDS011;7622;42.724;23.250;2024-02-26T05:32:52;24.23;;;16.53;;
15049;SDS011;7622;42.724;23.250;2024-02-26T05:35:18;24.30;;;16.60;;
15049;SDS011;7622;42.724;23.250;2024-02-26T05:37:45;27.60;;;17.53;;
15049;SDS011;7622;42.724;23.250;2024-02-26T05:40:12;24.43;;;15.73;;
15049;SDS011;7622;42.724;23.250;2024-02-26T05:42:39;23.83;;;16.53;;
15049;SDS011;7622;42.724;23.250;2024-02-26T05:45:06;27.37;;;17.43;;
15049;SDS011;7622;42.724;23.250;2024-02-26T05:47:35;31.10;;;17.97;;
15049;SDS011;7622;42.724;23.250;2024-02-26T05:50:07;26.20;;;18.30;;
15049;SDS011;7622;42.724;23.250;2024-02-26T05:52:36;22.93;;;15.77;;
15049;SDS011;7622;42.724;23.250;2024-02-26T05:55:03;28.17;;;17.17;;
15049;SDS011;7622;42.724;23.250;2024-02-26T05:57:30;29.83;;;17.47;;
15049;SDS011;7622;42.724;23.250;2024-02-26T05:59:57;29.30;;;17.83;;
15049;SDS011;7622;42.724;23.250;2024-02-26T06:02:25;28.43;;;18.40;;
15049;SDS011;7622;42.724;23.250;2024-02-26T06:04:53;31.13;;;18.80;;
15049;SDS011;7622;42.724;23.250;2024-02-26T06:07:20;26.33;;;17.80;;
15049;SDS011;7622;42.724;23.250;2024-02-26T06:09:47;22.50;;;16.00;;
15049;SDS011;7622;42.724;23.250;2024-02-26T06:12:14;25.73;;;19.07;;
15049;SDS011;7622;42.724;23.250;2024-02-26T06:14:41;34.03;;;18.63;;
15049;SDS011;7622;42.724;23.250;2024-02-26T06:17:08;32.90;;;18.73;;
15049;SDS011;7622;42.724;23.250;2024-02-26T06:19:35;27.83;;;17.67;;
15049;SDS011;7622;42.724;23.250;2024-02-26T06:22:03;29.63;;;18.37;;
15049;SDS011;7622;42.724;23.250;2024-02-26T06:24:30;28.23;;;18.87;;
15049;SDS011;7622;42.724;23.250;2024-02-26T06:26:56;27.67;;;18.23;;
15049;SDS011;7622;42.724;23.250;2024-02-26T06:29:23;36.80;;;21.80;;
15049;SDS011;7622;42.724;23.250;2024-02-26T06:31:50;35.40;;;21.57;;
15049;SDS011;7622;42.724;23.250;2024-02-26T06:34:16;35.43;;;19.10;;
15049;SDS011;7622;42.724;23.250;2024-02-26T06:36:43;36.97;;;21.27;;
15049;SDS011;7622;42.724;23.250;2024-02-26T06:39:11;33.60;;;20.37;;
15049;SDS011;7622;42.724;23.250;2024-02-26T06:41:38;33.73;;;20.00;;
15049;SDS011;7622;42.724;23.250;2024-02-26T06:44:04;39.20;;;22.87;;
15049;SDS011;7622;42.724;23.250;2024-02-26T06:46:31;44.57;;;24.53;;
15049;SDS011;7622;42.724;23.250;2024-02-26T06:48:58;35.40;;;22.33;;
15049;SDS011;7622;42.724;23.250;2024-02-26T06:51:24;37.47;;;24.17;;
15049;SDS011;7622;42.724;23.250;2024-02-26T06:53:51;39.23;;;24.60;;
15049;SDS011;7622;42.724;23.250;2024-02-26T06:56:19;42.13;;;26.03;;
15049;SDS011;7622;42.724;23.250;2024-02-26T06:58:46;46.67;;;27.00;;
15049;SDS011;7622;42.724;23.250;2024-02-26T07:01:12;43.97;;;27.00;;
15049;SDS011;7622;42.724;23.250;2024-02-26T07:03:40;36.33;;;24.00;;
15049;SDS011;7622;42.724;23.250;2024-02-26T07:06:06;39.27;;;23.83;;
15049;SDS011;7622;42.724;23.250;2024-02-26T07:08:34;35.27;;;23.27;;
15049;SDS011;7622;42.724;23.250;2024-02-26T07:11:01;38.33;;;24.77;;
15049;SDS011;7622;42.724;23.250;2024-02-26T07:13:29;40.97;;;23.60;;
15049;SDS011;7622;42.724;23.250;2024-02-26T07:15:55;36.87;;;22.87;;
15049;SDS011;7622;42.724;23.250;2024-02-26T07:18:22;35.20;;;22.37;;
15049;SDS011;7622;42.724;23.250;2024-02-26T07:20:49;37.43;;;21.30;;
15049;SDS011;7622;42.724;23.250;2024-02-26T07:23:15;34.13;;;21.00;;
15049;SDS011;7622;42.724;23.250;2024-02-26T07:25:42;32.83;;;19.97;;
15049;SDS011;7622;42.724;23.250;2024-02-26T07:28:09;29.53;;;18.57;;
15049;SDS011;7622;42.724;23.250;2024-02-26T07:30:37;28.27;;;17.40;;
15049;SDS011;7622;42.724;23.250;2024-02-26T07:33:04;29.10;;;19.03;;
15049;SDS011;7622;42.724;23.250;2024-02-26T07:35:31;32.23;;;18.70;;
15049;SDS011;7622;42.724;23.250;2024-02-26T07:37:58;26.47;;;17.43;;
15049;SDS011;7622;42.724;23.250;2024-02-26T07:40:25;28.73;;;17.10;;
15049;SDS011;7622;42.724;23.250;2024-02-26T07:42:52;28.77;;;16.97;;
15049;SDS011;7622;42.724;23.250;2024-02-26T07:45:18;27.07;;;17.47;;
15049;SDS011;7622;42.724;23.250;2024-02-26T07:47:47;29.33;;;18.40;;
15049;SDS011;7622;42.724;23.250;2024-02-26T07:50:14;28.03;;;18.30;;
15049;SDS011;7622;42.724;23.250;2024-02-26T07:52:40;29.47;;;18.17;;
15049;SDS011;7622;42.724;23.250;2024-02-26T07:55:07;29.30;;;17.83;;
15049;SDS011;7622;42.724;23.250;2024-02-26T07:57:34;24.00;;;16.50;;
15049;SDS011;7622;42.724;23.250;2024-02-26T08:00:01;31.30;;;17.10;;
15049;SDS011;7622;42.724;23.250;2024-02-26T08:02:29;26.17;;;17.87;;
15049;SDS011;7622;42.724;23.250;2024-02-26T08:04:57;27.07;;;18.13;;
15049;SDS011;7622;42.724;23.250;2024-02-26T08:07:23;27.30;;;17.80;;
15049;SDS011;7622;42.724;23.250;2024-02-26T08:09:50;26.27;;;17.50;;
15049;SDS011;7622;42.724;23.250;2024-02-26T08:12:17;26.80;;;17.13;;
15049;SDS011;7622;42.724;23.250;2024-02-26T08:14:43;32.17;;;19.53;;
15049;SDS011;7622;42.724;23.250;2024-02-26T08:17:10;29.73;;;19.97;;
15049;SDS011;7622;42.724;23.250;2024-02-26T08:19:37;33.97;;;21.90;;
15049;SDS011;7622;42.724;23.250;2024-02-26T08:22:05;33.43;;;21.97;;
15049;SDS011;7622;42.724;23.250;2024-02-26T08:24:32;35.10;;;23.03;;
15049;SDS011;7622;42.724;23.250;2024-02-26T08:26:58;34.03;;;22.17;;
15049;SDS011;7622;42.724;23.250;2024-02-26T08:29:25;33.37;;;21.17;;
15049;SDS011;7622;42.724;23.250;2024-02-26T08:31:52;32.87;;;20.70;;
15049;SDS011;7622;42.724;23.250;2024-02-26T08:34:18;30.93;;;20.23;;
15049;SDS011;7622;42.724;23.250;2024-02-26T08:36:45;32.57;;;19.47;;
15049;SDS011;7622;42.724;23.250;2024-02-26T08:39:15;32.27;;;20.23;;
15049;SDS011;7622;42.724;23.250;2024-02-26T08:41:42;27.67;;;20.33;;
15049;SDS011;7622;42.724;23.250;2024-02-26T08:44:09;33.17;;;20.70;;
15049;SDS011;7622;42.724;23.250;2024-02-26T08:46:36;32.93;;;19.97;;
15049;SDS011;7622;42.724;23.250;2024-02-26T08:49:02;35.37;;;20.30;;
15049;SDS011;7622;42.724;23.250;2024-02-26T08:51:29;27.73;;;20.03;;
15049;SDS011;7622;42.724;23.250;2024-02-26T08:53:55;29.47;;;19.30;;
15049;SDS011;7622;42.724;23.250;2024-02-26T08:56:24;36.90;;;21.03;;
15049;SDS011;7622;42.724;23.250;2024-02-26T08:58:50;32.80;;;19.60;;
15049;SDS011;7622;42.724;23.250;2024-02-26T09:01:18;30.00;;;20.27;;
15049;SDS011;7622;42.724;23.250;2024-02-26T09:03:45;29.77;;;21.20;;
15049;SDS011;7622;42.724;23.250;2024-02-26T09:06:14;36.03;;;20.63;;
15049;SDS011;7622;42.724;23.250;2024-02-26T09:08:41;32.20;;;20.10;;
15049;SDS011;7622;42.724;23.250;2024-02-26T09:11:07;32.17;;;21.23;;
15049;SDS011;7622;42.724;23.250;2024-02-26T09:13:36;37.13;;;20.33;;
15049;SDS011;7622;42.724;23.250;2024-02-26T09:16:03;38.73;;;21.23;;
15049;SDS011;7622;42.724;23.250;2024-02-26T09:18:31;30.37;;;19.77;;
15049;SDS011;7622;42.724;23.250;2024-02-26T09:20:57;32.87;;;20.97;;
15049;SDS011;7622;42.724;23.250;2024-02-26T09:23:24;30.30;;;19.43;;
15049;SDS011;7622;42.724;23.250;2024-02-26T09:25:51;31.37;;;20.67;;
15049;SDS011;7622;42.724;23.250;2024-02-26T09:28:17;26.40;;;19.57;;
15049;SDS011;7622;42.724;23.250;2024-02-26T09:30:45;30.17;;;21.37;;
15049;SDS011;7622;42.724;23.250;2024-02-26T09:33:13;30.63;;;20.10;;
15049;SDS011;7622;42.724;23.250;2024-02-26T09:35:40;27.53;;;18.67;;
15049;SDS011;7622;42.724;23.250;2024-02-26T09:38:07;27.60;;;18.10;;
15049;SDS011;7622;42.724;23.250;2024-02-26T09:40:34;32.60;;;20.47;;
15049;SDS011;7622;42.724;23.250;2024-02-26T09:43:00;30.00;;;20.47;;
15049;SDS011;7622;42.724;23.250;2024-02-26T09:45:30;34.13;;;19.50;;
15049;SDS011;7622;42.724;23.250;2024-02-26T09:48:02;26.70;;;19.20;;
15049;SDS011;7622;42.724;23.250;2024-02-26T09:50:30;27.20;;;18.67;;
15049;SDS011;7622;42.724;23.250;2024-02-26T09:52:57;30.23;;;18.50;;
15049;SDS011;7622;42.724;23.250;2024-02-26T09:55:27;24.23;;;18.50;;
15049;SDS011;7622;42.724;23.250;2024-02-26T09:57:54;28.20;;;17.90;;
15049;SDS011;7622;42.724;23.250;2024-02-26T10:00:23;23.93;;;14.63;;
15049;SDS011;7622;42.724;23.250;2024-02-26T10:02:55;20.33;;;10.63;;
15049;SDS011;7622;42.724;23.250;2024-02-26T10:05:25;12.30;;;8.13;;
15049;SDS011;7622;42.724;23.250;2024-02-26T10:07:53;12.60;;;6.83;;
15049;SDS011;7622;42.724;23.250;2024-02-26T10:10:21;12.40;;;7.20;;
15049;SDS011;7622;42.724;23.250;2024-02-26T10:12:48;8.03;;;6.70;;
15049;SDS011;7622;42.724;23.250;2024-02-26T10:15:15;7.77;;;7.07;;
15049;SDS011;7622;42.724;23.250;2024-02-26T10:17:42;10.30;;;6.60;;
15049;SDS011;7622;42.724;23.250;2024-02-26T10:20:12;7.57;;;6.70;;
15049;SDS011;7622;42.724;23.250;2024-02-26T10:22:42;6.87;;;6.27;;
15049;SDS011;7622;42.724;23.250;2024-02-26T10:25:09;7.50;;;6.03;;
15049;SDS011;7622;42.724;23.250;2024-02-26T10:27:36;7.17;;;6.27;;
15049;SDS011;7622;42.724;23.250;2024-02-26T10:30:03;11.50;;;6.80;;
15049;SDS011;7622;42.724;23.250;2024-02-26T10:32:30;7.37;;;6.20;;
15049;SDS011;7622;42.724;23.250;2024-02-26T10:34:58;7.30;;;5.93;;
15049;SDS011;7622;42.724;23.250;2024-02-26T10:37:24;7.53;;;5.73;;
15049;SDS011;7622;42.724;23.250;2024-02-26T10:39:53;10.83;;;6.20;;
15049;SDS011;7622;42.724;23.250;2024-02-26T10:42:19;6.57;;;5.77;;
15049;SDS011;7622;42.724;23.250;2024-02-26T10:44:46;7.93;;;5.83;;
15049;SDS011;7622;42.724;23.250;2024-02-26T10:47:14;6.70;;;6.13;;
15049;SDS011;7622;42.724;23.250;2024-02-26T10:49:44;6.73;;;6.03;;
15049;SDS011;7622;42.724;23.250;2024-02-26T10:52:13;6.10;;;5.50;;
15049;SDS011;7622;42.724;23.250;2024-02-26T10:54:41;5.60;;;5.00;;
15049;SDS011;7622;42.724;23.250;2024-02-26T10:57:11;6.77;;;4.57;;
15049;SDS011;7622;42.724;23.250;2024-02-26T10:59:38;5.97;;;5.47;;
15049;SDS011;7622;42.724;23.250;2024-02-26T11:02:06;6.23;;;5.73;;
15049;SDS011;7622;42.724;23.250;2024-02-26T11:04:36;6.30;;;5.43;;
15049;SDS011;7622;42.724;23.250;2024-02-26T11:07:05;6.83;;;5.50;;
15049;SDS011;7622;42.724;23.250;2024-02-26T11:09:32;6.47;;;5.97;;
15049;SDS011;7622;42.724;23.250;2024-02-26T11:11:59;7.87;;;5.80;;
15049;SDS011;7622;42.724;23.250;2024-02-26T11:14:28;5.70;;;5.27;;
15049;SDS011;7622;42.724;23.250;2024-02-26T11:16:56;6.83;;;5.73;;
15049;SDS011;7622;42.724;23.250;2024-02-26T11:19:24;6.10;;;5.57;;
15049;SDS011;7622;42.724;23.250;2024-02-26T11:21:52;5.60;;;4.90;;
15049;SDS011;7622;42.724;23.250;2024-02-26T11:24:19;6.60;;;5.13;;
15049;SDS011;7622;42.724;23.250;2024-02-26T11:26:47;5.03;;;4.63;;
15049;SDS011;7622;42.724;23.250;2024-02-26T11:29:23;5.73;;;5.23;;
15049;SDS011;7622;42.724;23.250;2024-02-26T11:31:55;6.57;;;4.97;;
15049;SDS011;7622;42.724;23.250;2024-02-26T11:34:21;5.17;;;4.73;;
15049;SDS011;7622;42.724;23.250;2024-02-26T11:36:49;5.87;;;5.47;;
15049;SDS011;7622;42.724;23.250;2024-02-26T11:39:17;6.90;;;5.47;;
15049;SDS011;7622;42.724;23.250;2024-02-26T11:41:43;6.30;;;5.70;;
15049;SDS011;7622;42.724;23.250;2024-02-26T11:44:10;10.13;;;6.07;;
15049;SDS011;7622;42.724;23.250;2024-02-26T11:46:38;5.87;;;5.40;;
15049;SDS011;7622;42.724;23.250;2024-02-26T11:51:59;7.10;;;5.27;;
15049;SDS011;7622;42.724;23.250;2024-02-26T11:54:38;7.83;;;5.33;;
15049;SDS011;7622;42.724;23.250;2024-02-26T11:57:19;6.10;;;5.13;;
15049;SDS011;7622;42.724;23.250;2024-02-26T11:59:46;6.70;;;5.67;;
15049;SDS011;7622;42.724;23.250;2024-02-26T12:05:08;9.50;;;5.53;;
15049;SDS011;7622;42.724;23.250;2024-02-26T12:07:39;5.63;;;5.03;;
15049;SDS011;7622;42.724;23.250;2024-02-26T12:10:25;5.77;;;5.27;;
15049;SDS011;7622;42.724;23.250;2024-02-26T12:12:54;5.90;;;5.27;;
15049;SDS011;7622;42.724;23.250;2024-02-26T12:15:24;5.80;;;4.50;;
15049;SDS011;7622;42.724;23.250;2024-02-26T12:17:57;6.87;;;4.43;;
15049;SDS011;7622;42.724;23.250;2024-02-26T12:20:26;5.83;;;4.67;;
15049;SDS011;7622;42.724;23.250;2024-02-26T12:22:52;8.77;;;4.40;;
15049;SDS011;7622;42.724;23.250;2024-02-26T12:25:22;4.30;;;4.00;;
15049;SDS011;7622;42.724;23.250;2024-02-26T12:27:50;5.30;;;4.80;;
15049;SDS011;7622;42.724;23.250;2024-02-26T12:30:17;8.63;;;4.60;;
15049;SDS011;7622;42.724;23.250;2024-02-26T12:32:44;10.07;;;5.07;;
15049;SDS011;7622;42.724;23.250;2024-02-26T12:35:11;6.33;;;4.70;;
15049;SDS011;7622;42.724;23.250;2024-02-26T12:37:39;4.53;;;4.13;;
15049;SDS011;7622;42.724;23.250;2024-02-26T12:40:06;4.40;;;4.10;;
15049;SDS011;7622;42.724;23.250;2024-02-26T12:42:35;3.90;;;3.60;;
15049;SDS011;7622;42.724;23.250;2024-02-26T12:45:05;8.77;;;4.47;;
15049;SDS011;7622;42.724;23.250;2024-02-26T12:47:37;6.07;;;4.17;;
15049;SDS011;7622;42.724;23.250;2024-02-26T12:50:05;5.00;;;4.50;;
15049;SDS011;7622;42.724;23.250;2024-02-26T12:52:33;8.77;;;4.27;;
15049;SDS011;7622;42.724;23.250;2024-02-26T12:55:02;4.17;;;3.87;;
15049;SDS011;7622;42.724;23.250;2024-02-26T12:57:30;5.93;;;4.27;;
15049;SDS011;7622;42.724;23.250;2024-02-26T12:59:58;5.07;;;4.50;;
15049;SDS011;7622;42.724;23.250;2024-02-26T13:02:25;4.53;;;4.23;;
15049;SDS011;7622;42.724;23.250;2024-02-26T13:04:53;5.63;;;4.07;;
15049;SDS011;7622;42.724;23.250;2024-02-26T13:07:20;5.33;;;3.50;;
15049;SDS011;7622;42.724;23.250;2024-02-26T13:09:47;5.90;;;4.30;;
15049;SDS011;7622;42.724;23.250;2024-02-26T13:12:16;6.20;;;4.43;;
15049;SDS011;7622;42.724;23.250;2024-02-26T13:14:43;4.30;;;4.00;;
15049;SDS011;7622;42.724;23.250;2024-02-26T13:17:09;5.47;;;4.63;;
15049;SDS011;7622;42.724;23.250;2024-02-26T13:19:36;7.63;;;4.80;;
15049;SDS011;7622;42.724;23.250;2024-02-26T13:22:03;6.97;;;4.00;;
15049;SDS011;7622;42.724;23.250;2024-02-26T13:24:31;10.00;;;4.53;;
15049;SDS011;7622;42.724;23.250;2024-02-26T13:26:58;6.87;;;3.97;;
15049;SDS011;7622;42.724;23.250;2024-02-26T13:29:27;5.27;;;4.23;;
15049;SDS011;7622;42.724;23.250;2024-02-26T13:31:54;5.43;;;4.50;;
15049;SDS011;7622;42.724;23.250;2024-02-26T13:34:25;6.63;;;3.87;;
15049;SDS011;7622;42.724;23.250;2024-02-26T13:36:52;4.43;;;3.80;;
15049;SDS011;7622;42.724;23.250;2024-02-26T13:39:23;4.43;;;3.97;;
15049;SDS011;7622;42.724;23.250;2024-02-26T13:41:50;5.83;;;4.40;;
15049;SDS011;7622;42.724;23.250;2024-02-26T13:44:17;7.60;;;4.13;;
15049;SDS011;7622;42.724;23.250;2024-02-26T13:46:45;7.10;;;4.67;;
15049;SDS011;7622;42.724;23.250;2024-02-26T13:49:13;7.80;;;4.63;;
15049;SDS011;7622;42.724;23.250;2024-02-26T13:51:39;5.47;;;3.60;;
15049;SDS011;7622;42.724;23.250;2024-02-26T13:54:06;4.47;;;3.60;;
15049;SDS011;7622;42.724;23.250;2024-02-26T13:56:34;4.63;;;4.23;;
15049;SDS011;7622;42.724;23.250;2024-02-26T13:59:01;5.27;;;3.87;;
15049;SDS011;7622;42.724;23.250;2024-02-26T14:01:28;4.43;;;3.63;;
15049;SDS011;7622;42.724;23.250;2024-02-26T14:03:57;10.30;;;6.00;;
15049;SDS011;7622;42.724;23.250;2024-02-26T14:06:23;5.43;;;4.60;;
15049;SDS011;7622;42.724;23.250;2024-02-26T14:08:50;7.60;;;4.23;;
15049;SDS011;7622;42.724;23.250;2024-02-26T14:11:17;8.53;;;4.40;;
15049;SDS011;7622;42.724;23.250;2024-02-26T14:13:43;5.33;;;3.90;;
15049;SDS011;7622;42.724;23.250;2024-02-26T14:16:11;5.13;;;4.40;;
15049;SDS011;7622;42.724;23.250;2024-02-26T14:18:38;5.57;;;4.47;;
15049;SDS011;7622;42.724;23.250;2024-02-26T14:21:07;5.57;;;4.03;;
15049;SDS011;7622;42.724;23.250;2024-02-26T14:23:34;4.93;;;4.17;;
15049;SDS011;7622;42.724;23.250;2024-02-26T14:26:01;7.03;;;4.87;;
15049;SDS011;7622;42.724;23.250;2024-02-26T14:28:28;8.37;;;4.40;;
15049;SDS011;7622;42.724;23.250;2024-02-26T14:30:57;4.47;;;4.13;;
15049;SDS011;7622;42.724;23.250;2024-02-26T14:33:23;5.83;;;3.30;;
15049;SDS011;7622;42.724;23.250;2024-02-26T14:35:50;7.43;;;4.33;;